Chl Innovator — 9VNG — position and weather

sailwx.info

Track history (hours):
 
Tides and Currents Weather Stations Pressure Air Temp Water Temp Dewpoint Dewpoint Depression Visibility Wind Speed Wind Dir Waves Ship Positions

Chl Innovator

Last reported at 2018-Jan-10 12:02 UTC. Time now 2018-Jan-23 20:22 UTC.
Position N 31°11' E 029°52'.
Warning: this ship's position is 13 days out of date.

Length 176 m; draft 10.6 m.

Type: Cargo ship. MMSI: 563410000.

Date/timePositionNaut miles runAvg speedWind from/ knotsBaromVisibWave heightAir tempDewpointWater temp
2018-Jan-10 12:02N 31°11' E 029°52'0 0.0
2018-Jan-10 11:56N 31°11' E 029°52'  
2018-Jan-05 14:07N 35°43' E 014°56'212.2
2018-Jan-05 13:58N 35°44' E 014°53'612.3
2018-Jan-05 13:29N 35°46' E 014°47'612.3
2018-Jan-05 13:00N 35°48' E 014°40'3 5.4
2018-Jan-05 12:24N 35°49' E 014°36'0 0.1
2018-Jan-05 11:57N 35°49' E 014°36'0 0.0
2018-Jan-05 11:30N 35°49' E 014°36'0 0.0
2018-Jan-05 11:00N 35°49' E 014°36'0 0.0
2018-Jan-05 10:30N 35°49' E 014°36'0 0.0
2018-Jan-05 10:00N 35°49' E 014°36'0 0.0
2018-Jan-05 09:30N 35°49' E 014°36'0 0.1
2018-Jan-05 08:54N 35°49' E 014°36'0 0.0
2018-Jan-05 08:30N 35°49' E 014°36'0 0.0
2018-Jan-05 07:51N 35°49' E 014°36'0 0.2
2018-Jan-05 07:30N 35°49' E 014°36'2 3.6
2018-Jan-05 07:00N 35°49' E 014°38'611.3
2018-Jan-05 06:30N 35°48' E 014°45'9 7.8
2018-Jan-05 05:19N 35°48' E 014°56'7 1.6
2018-Jan-05 01:17N 35°54' E 014°53'2 7.8
2018-Jan-05 01:00N 35°56' E 014°51'611.6
2018-Jan-05 00:30N 35°59' E 014°45'611.9
2018-Jan-05 00:00N 36°01' E 014°38'611.7
2018-Jan-04 23:30N 36°04' E 014°32'611.9
2018-Jan-04 23:00N 36°07' E 014°26'611.8
2018-Jan-04 22:30N 36°09' E 014°19'611.6
2018-Jan-04 22:00N 36°12' E 014°13'611.4
2018-Jan-04 21:29N 36°14' E 014°06'611.3
2018-Jan-04 21:00N 36°17' E 013°60'611.7
2018-Jan-04 20:30N 36°19' E 013°53'612.1
2018-Jan-04 20:00N 36°21' E 013°46'612.1
2018-Jan-04 19:30N 36°24' E 013°40'17312.3
2018-Jan-04 05:23N 37°32' E 010°20'514.2
2018-Jan-04 05:00N 37°33' E 010°14'814.7
2018-Jan-04 04:28N 37°33' E 010°04'715.0
2018-Jan-04 04:00N 37°32' E 009°55'714.6
2018-Jan-04 03:30N 37°30' E 009°46'714.2
2018-Jan-04 03:00N 37°28' E 009°38'  
2018-Jan-01 21:22N 36°00' W 005°11'514.3
2018-Jan-01 21:01N 35°59' W 005°17'715.0
2018-Jan-01 20:31N 35°58' W 005°26'12813.0
2018-Jan-01 10:42N 36°17' W 008°02'15511.3
2017-Dec-31 21:00N 38°19' W 010°02'713.4
2017-Dec-31 20:31N 38°26' W 010°03'713.2
2017-Dec-31 20:00N 38°32' W 010°05'713.0
2017-Dec-31 19:30N 38°39' W 010°06'613.0
2017-Dec-31 19:00N 38°45' W 010°07'713.2
2017-Dec-31 18:30N 38°52' W 010°08'713.6
2017-Dec-31 18:00N 38°58' W 010°08'713.3
2017-Dec-31 17:30N 39°05' W 010°08'713.7
2017-Dec-31 17:00N 39°12' W 010°08'713.4
2017-Dec-31 16:30N 39°19' W 010°08'  
Track history (hours):
 
Tides and Currents Weather Stations Pressure Air Temp Water Temp Dewpoint Dewpoint Depression Visibility Wind Speed Wind Dir Waves Ship Positions

Chl Innovator

Last reported at 2018-Jan-10 12:02 UTC. Time now 2018-Jan-23 20:22 UTC.
Position N 31°11' E 029°52'.
Warning: this ship's position is 13 days out of date.

Length 176 m; draft 10.6 m.

Type: Cargo ship. MMSI: 563410000.

Date/timePositionNaut miles runAvg speedWind from/ knotsBaromVisibWave heightAir tempDewpointWater temp
2018-Jan-10 12:02N 31°11' E 029°52'0 0.0
2018-Jan-10 11:56N 31°11' E 029°52'  
2018-Jan-05 14:07N 35°43' E 014°56'212.2
2018-Jan-05 13:58N 35°44' E 014°53'612.3
2018-Jan-05 13:29N 35°46' E 014°47'612.3
2018-Jan-05 13:00N 35°48' E 014°40'3 5.4
2018-Jan-05 12:24N 35°49' E 014°36'0 0.1
2018-Jan-05 11:57N 35°49' E 014°36'0 0.0
2018-Jan-05 11:30N 35°49' E 014°36'0 0.0
2018-Jan-05 11:00N 35°49' E 014°36'0 0.0
2018-Jan-05 10:30N 35°49' E 014°36'0 0.0
2018-Jan-05 10:00N 35°49' E 014°36'0 0.0
2018-Jan-05 09:30N 35°49' E 014°36'0 0.1
2018-Jan-05 08:54N 35°49' E 014°36'0 0.0
2018-Jan-05 08:30N 35°49' E 014°36'0 0.0
2018-Jan-05 07:51N 35°49' E 014°36'0 0.2
2018-Jan-05 07:30N 35°49' E 014°36'2 3.6
2018-Jan-05 07:00N 35°49' E 014°38'611.3
2018-Jan-05 06:30N 35°48' E 014°45'9 7.8
2018-Jan-05 05:19N 35°48' E 014°56'7 1.6
2018-Jan-05 01:17N 35°54' E 014°53'2 7.8
2018-Jan-05 01:00N 35°56' E 014°51'611.6
2018-Jan-05 00:30N 35°59' E 014°45'611.9
2018-Jan-05 00:00N 36°01' E 014°38'611.7
2018-Jan-04 23:30N 36°04' E 014°32'611.9
2018-Jan-04 23:00N 36°07' E 014°26'611.8
2018-Jan-04 22:30N 36°09' E 014°19'611.6
2018-Jan-04 22:00N 36°12' E 014°13'611.4
2018-Jan-04 21:29N 36°14' E 014°06'611.3
2018-Jan-04 21:00N 36°17' E 013°60'611.7
2018-Jan-04 20:30N 36°19' E 013°53'612.1
2018-Jan-04 20:00N 36°21' E 013°46'612.1
2018-Jan-04 19:30N 36°24' E 013°40'17312.3
2018-Jan-04 05:23N 37°32' E 010°20'514.2
2018-Jan-04 05:00N 37°33' E 010°14'814.7
2018-Jan-04 04:28N 37°33' E 010°04'715.0
2018-Jan-04 04:00N 37°32' E 009°55'714.6
2018-Jan-04 03:30N 37°30' E 009°46'714.2
2018-Jan-04 03:00N 37°28' E 009°38'  
2018-Jan-01 21:22N 36°00' W 005°11'514.3
2018-Jan-01 21:01N 35°59' W 005°17'715.0
2018-Jan-01 20:31N 35°58' W 005°26'12813.0
2018-Jan-01 10:42N 36°17' W 008°02'15511.3
2017-Dec-31 21:00N 38°19' W 010°02'713.4
2017-Dec-31 20:31N 38°26' W 010°03'713.2
2017-Dec-31 20:00N 38°32' W 010°05'713.0
2017-Dec-31 19:30N 38°39' W 010°06'613.0
2017-Dec-31 19:00N 38°45' W 010°07'713.2
2017-Dec-31 18:30N 38°52' W 010°08'713.6
2017-Dec-31 18:00N 38°58' W 010°08'713.3
2017-Dec-31 17:30N 39°05' W 010°08'713.7
2017-Dec-31 17:00N 39°12' W 010°08'713.4
2017-Dec-31 16:30N 39°19' W 010°08'  

Dump ship's entire track history